createdAt,value
2019-04-26T00:01:38.961Z,98268.52
2019-04-26T00:04:10.669Z,98285.04
2019-04-26T00:06:39.844Z,98282.77
2019-04-26T00:09:38.428Z,98296.77
2019-04-26T00:12:20.133Z,98309.19
2019-04-26T00:15:08.298Z,98322.22
2019-04-26T00:17:45.926Z,98325.10
2019-04-26T00:20:17.433Z,98333.41
2019-04-26T00:22:47.248Z,98340.91
2019-04-26T00:25:16.658Z,98342.72
2019-04-26T00:27:45.886Z,98333.58
2019-04-26T00:30:16.981Z,98329.83
2019-04-26T00:32:46.574Z,98327.30
2019-04-26T00:35:15.773Z,98334.38
2019-04-26T00:37:45.645Z,98345.91
2019-04-26T00:40:16.591Z,98351.09
2019-04-26T00:42:46.544Z,98370.92
2019-04-26T00:45:16.770Z,98378.81
2019-04-26T00:47:46.974Z,98386.13
2019-04-26T00:50:17.162Z,98385.58
2019-04-26T00:52:47.210Z,98379.30
2019-04-26T00:55:23.878Z,98371.30
2019-04-26T00:57:53.473Z,98356.28
2019-04-26T01:00:23.825Z,98350.36
2019-04-26T01:02:55.920Z,98343.38
2019-04-26T01:05:27.891Z,98345.42
2019-04-26T01:07:57.651Z,98365.41
2019-04-26T01:10:29.352Z,98385.63
2019-04-26T01:13:01.089Z,98380.82
2019-04-26T01:15:31.279Z,98362.17
2019-04-26T01:18:01.248Z,98351.33
2019-04-26T01:20:33.659Z,98348.20
2019-04-26T01:23:10.210Z,98348.19
2019-04-26T01:25:48.439Z,98341.14
2019-04-26T01:28:30.004Z,98345.38
2019-04-26T01:31:02.166Z,98374.34
2019-04-26T01:33:34.761Z,98399.77
2019-04-26T01:36:12.790Z,98401.44
2019-04-26T01:38:36.653Z,98392.53
2019-04-26T01:41:12.456Z,98393.73
2019-04-26T01:44:18.302Z,98407.24
2019-04-26T01:46:50.501Z,98419.02
2019-04-26T01:49:24.825Z,98415.87
2019-04-26T01:52:05.770Z,98418.00
2019-04-26T01:54:41.669Z,98401.29
2019-04-26T01:57:12.623Z,98399.27
2019-04-26T01:59:52.300Z,98401.55
2019-04-26T02:02:36.528Z,98397.81
2019-04-26T02:05:12.737Z,98404.19
2019-04-26T02:07:46.890Z,98398.42
2019-04-26T02:10:20.055Z,98392.28
2019-04-26T02:12:52.676Z,98392.39
2019-04-26T02:15:29.284Z,98391.21
2019-04-26T02:18:01.654Z,98396.26
2019-04-26T02:21:22.055Z,98398.50
2019-04-26T02:24:17.275Z,98392.36
2019-04-26T02:26:49.968Z,98390.78
2019-04-26T02:29:25.264Z,98393.81
2019-04-26T02:32:00.495Z,98393.06
2019-04-26T02:34:38.064Z,98392.48
2019-04-26T02:37:10.723Z,98385.23
2019-04-26T02:39:41.697Z,98391.23
2019-04-26T02:42:20.320Z,98408.11
2019-04-26T02:45:03.836Z,98423.94
2019-04-26T02:48:15.564Z,98420.56
2019-04-26T02:50:53.898Z,98406.61
2019-04-26T02:54:06.905Z,98420.36
2019-04-26T02:56:44.674Z,98425.44
2019-04-26T02:59:42.756Z,98440.54
2019-04-26T03:02:25.733Z,98432.96
2019-04-26T03:05:06.139Z,98434.48
2019-04-26T03:07:45.715Z,98445.99
2019-04-26T03:10:16.325Z,98459.83
2019-04-26T03:12:48.496Z,98447.64
2019-04-26T03:15:33.916Z,98446.68
2019-04-26T03:18:29.223Z,98451.11
2019-04-26T03:21:03.647Z,98430.87
2019-04-26T03:23:59.674Z,98430.05
2019-04-26T03:27:10.526Z,98428.50
2019-04-26T03:30:17.686Z,98446.47
2019-04-26T03:32:57.393Z,98438.71
2019-04-26T03:35:56.511Z,98448.22
2019-04-26T03:38:45.999Z,98462.30
2019-04-26T03:41:34.442Z,98466.42
2019-04-26T03:44:22.618Z,98456.98
2019-04-26T03:46:57.426Z,98453.06
2019-04-26T03:50:22.970Z,98465.58
2019-04-26T03:53:13.771Z,98471.59
2019-04-26T03:56:16.824Z,98477.02
2019-04-26T03:59:10.300Z,98454.53
2019-04-26T04:01:52.543Z,98444.39
2019-04-26T04:04:39.447Z,98434.52
2019-04-26T04:07:13.778Z,98444.52
2019-04-26T04:09:48.153Z,98442.84
2019-04-26T04:12:39.776Z,98441.50
2019-04-26T04:15:18.858Z,98450.53
2019-04-26T04:17:55.467Z,98448.27
2019-04-26T04:21:26.617Z,98441.64
2019-04-26T04:24:07.769Z,98433.61
2019-04-26T04:26:58.964Z,98443.59
2019-04-26T04:29:57.661Z,98449.23
2019-04-26T04:32:50.578Z,98448.41
2019-04-26T04:35:25.267Z,98453.30
2019-04-26T04:38:09.217Z,98449.02
2019-04-26T04:41:08.504Z,98440.83
2019-04-26T04:43:45.196Z,98453.59
2019-04-26T04:47:24.791Z,98449.49
2019-04-26T04:50:23.043Z,98463.11
2019-04-26T04:53:20.736Z,98479.19
2019-04-26T04:56:12.064Z,98484.48
2019-04-26T04:58:50.191Z,98481.52
2019-04-26T05:01:53.843Z,98505.82
2019-04-26T05:04:33.782Z,98513.98
2019-04-26T05:07:30.634Z,98499.37
2019-04-26T05:10:18.507Z,98500.58
2019-04-26T05:12:58.196Z,98511.16
2019-04-26T05:15:57.466Z,98495.88
2019-04-26T05:19:23.739Z,98470.25
2019-04-26T05:22:13.417Z,98469.16
2019-04-26T05:25:40.550Z,98491.93
2019-04-26T05:28:23.578Z,98516.95
2019-04-26T05:31:36.172Z,98528.73
2019-04-26T05:34:42.944Z,98529.94
2019-04-26T05:37:53.282Z,98531.63
2019-04-26T05:40:55.637Z,98525.54
2019-04-26T05:44:12.970Z,98510.88
2019-04-26T05:47:14.717Z,98504.55
2019-04-26T05:50:45.443Z,98514.20
2019-04-26T05:54:13.850Z,98528.44
2019-04-26T05:56:54.309Z,98530.54
2019-04-26T05:59:56.797Z,98537.09
2019-04-26T06:03:16.526Z,98543.70
2019-04-26T06:06:24.297Z,98546.38
2019-04-26T06:09:42.637Z,98535.69
2019-04-26T06:12:41.550Z,98549.75
2019-04-26T06:15:42.141Z,98569.80
2019-04-26T06:19:09.865Z,98561.07
2019-04-26T06:22:15.348Z,98564.69
2019-04-26T06:25:33.453Z,98547.48
2019-04-26T06:28:26.008Z,98553.52
2019-04-26T06:31:12.148Z,98564.10
2019-04-26T06:34:13.101Z,98562.15
2019-04-26T06:37:29.069Z,98558.70
2019-04-26T06:40:46.875Z,98571.09
2019-04-26T06:43:47.354Z,98578.20
2019-04-26T06:47:10.744Z,98591.91
2019-04-26T06:50:18.379Z,98598.05
2019-04-26T06:52:58.046Z,98601.84
2019-04-26T06:55:42.081Z,98616.66
2019-04-26T06:58:31.920Z,98626.84
2019-04-26T07:01:13.063Z,98635.32
2019-04-26T07:04:18.007Z,98638.86
2019-04-26T07:07:21.461Z,98641.82
2019-04-26T07:10:29.735Z,98640.42
2019-04-26T07:13:51.373Z,98645.59
2019-04-26T07:16:45.779Z,98649.00
2019-04-26T07:20:01.435Z,98643.97
2019-04-26T07:22:55.257Z,98642.45
2019-04-26T07:25:59.194Z,98647.08
2019-04-26T07:29:04.704Z,98661.23
2019-04-26T07:31:53.860Z,98667.72
2019-04-26T07:35:13.274Z,98668.38
2019-04-26T07:38:48.469Z,98671.05
2019-04-26T07:41:55.742Z,98662.37
2019-04-26T07:44:58.406Z,98660.13
2019-04-26T07:48:19.691Z,98665.67
2019-04-26T07:51:31.088Z,98664.83
2019-04-26T07:54:58.896Z,98665.42
2019-04-26T07:58:22.990Z,98665.61
2019-04-26T08:01:15.930Z,98671.59
2019-04-26T08:04:00.233Z,98681.09
2019-04-26T08:06:52.787Z,98681.69
2019-04-26T08:09:27.743Z,98690.84
2019-04-26T08:12:08.029Z,98700.84
2019-04-26T08:14:48.054Z,98708.02
2019-04-26T08:17:46.133Z,98729.66
2019-04-26T08:20:48.311Z,98733.23
2019-04-26T08:23:38.450Z,98754.61
2019-04-26T08:26:00.925Z,98763.39
2019-04-26T08:28:35.083Z,98786.97
2019-04-26T08:31:09.450Z,98788.67
2019-04-26T08:33:48.800Z,98793.27
2019-04-26T08:36:23.182Z,98800.00
2019-04-26T08:38:52.630Z,98810.32
2019-04-26T08:41:24.201Z,98816.00
2019-04-26T08:44:25.529Z,98821.81
2019-04-26T08:47:26.311Z,98812.27
2019-04-26T08:50:12.186Z,98814.23
2019-04-26T08:52:43.174Z,98817.27
2019-04-26T08:55:15.432Z,98810.19
2019-04-26T08:57:48.989Z,98810.75
2019-04-26T09:00:33.992Z,98805.98
2019-04-26T09:03:15.524Z,98803.80
2019-04-26T09:06:00.820Z,98813.99
2019-04-26T09:08:39.405Z,98825.21
2019-04-26T09:11:23.762Z,98826.09
2019-04-26T09:13:46.561Z,98826.30
2019-04-26T09:16:19.669Z,98831.59
2019-04-26T09:18:54.124Z,98828.40
2019-04-26T09:21:29.500Z,98837.00
2019-04-26T09:24:25.073Z,98840.52
2019-04-26T09:27:00.458Z,98845.70
2019-04-26T09:29:40.679Z,98852.23
2019-04-26T09:32:16.175Z,98850.87
2019-04-26T09:34:45.450Z,98858.30
2019-04-26T09:37:14.936Z,98860.19
2019-04-26T09:39:47.431Z,98861.62
2019-04-26T09:42:24.704Z,98853.94
2019-04-26T09:45:30.200Z,98864.03
2019-04-26T09:48:07.995Z,98868.23
2019-04-26T09:50:46.129Z,98873.61
2019-04-26T09:53:19.854Z,98879.87
2019-04-26T09:55:49.784Z,98881.56
2019-04-26T09:58:19.576Z,98874.72
2019-04-26T10:00:50.284Z,98863.61
2019-04-26T10:03:22.519Z,98871.08
2019-04-26T10:05:55.851Z,98863.41
2019-04-26T10:08:25.022Z,98858.30
2019-04-26T10:10:54.453Z,98850.52
2019-04-26T10:13:42.676Z,98851.09
2019-04-26T10:16:37.687Z,98857.40
2019-04-26T10:19:10.873Z,98859.02
2019-04-26T10:21:40.906Z,98860.88
2019-04-26T10:24:10.863Z,98870.32
2019-04-26T10:26:40.228Z,98874.84
2019-04-26T10:29:09.694Z,98867.64
2019-04-26T10:31:39.426Z,98856.50
2019-04-26T10:34:11.787Z,98858.09
2019-04-26T10:36:40.687Z,98852.42
2019-04-26T10:39:13.555Z,98849.51
2019-04-26T10:41:46.025Z,98849.83
2019-04-26T10:44:41.179Z,98862.90
2019-04-26T10:47:11.874Z,98867.00
2019-04-26T10:49:42.761Z,98863.48
2019-04-26T10:52:30.605Z,98870.75
2019-04-26T10:55:23.526Z,98868.73
2019-04-26T10:57:54.719Z,98880.70
2019-04-26T11:00:36.532Z,98890.08
2019-04-26T11:03:08.920Z,98888.36
2019-04-26T11:05:40.164Z,98894.31
2019-04-26T11:08:11.528Z,98892.70
2019-04-26T11:10:48.572Z,98891.74
2019-04-26T11:13:11.875Z,98886.45
2019-04-26T11:15:42.230Z,98885.82
2019-04-26T11:18:11.404Z,98890.37
2019-04-26T11:20:41.518Z,98892.80
2019-04-26T11:23:13.030Z,98900.12
2019-04-26T11:25:42.494Z,98898.00
2019-04-26T11:28:17.335Z,98911.45
2019-04-26T11:30:47.975Z,98911.14
2019-04-26T11:33:18.407Z,98902.77
2019-04-26T11:35:47.654Z,98901.13
2019-04-26T11:38:21.712Z,98903.81
2019-04-26T11:41:05.758Z,98904.52
2019-04-26T11:43:33.738Z,98899.84
2019-04-26T11:46:04.652Z,98891.19
2019-04-26T11:48:35.475Z,98877.31
2019-04-26T11:51:05.018Z,98883.13
2019-04-26T11:53:34.531Z,98872.48
2019-04-26T11:56:05.595Z,98866.59
2019-04-26T11:58:35.261Z,98857.05
2019-04-26T12:01:06.861Z,98872.23
2019-04-26T12:03:36.669Z,98875.78
2019-04-26T12:06:25.636Z,98875.55
2019-04-26T12:08:57.985Z,98874.57
2019-04-26T12:11:34.126Z,98877.06
2019-04-26T12:14:03.956Z,98892.53
2019-04-26T12:16:33.383Z,98893.38
2019-04-26T12:19:02.816Z,98900.06
2019-04-26T12:21:34.131Z,98893.89
2019-04-26T12:24:05.248Z,98891.41
2019-04-26T12:26:43.086Z,98895.81
2019-04-26T12:29:10.609Z,98913.75
2019-04-26T12:31:41.713Z,98917.00
2019-04-26T12:34:14.098Z,98918.94
2019-04-26T12:36:43.783Z,98918.83
2019-04-26T12:39:13.981Z,98920.45
2019-04-26T12:41:43.800Z,98917.10
2019-04-26T12:44:15.002Z,98923.56
2019-04-26T12:47:03.563Z,98920.15
2019-04-26T12:49:31.078Z,98915.86
2019-04-26T12:52:00.347Z,98913.21
2019-04-26T12:54:30.687Z,98911.17
2019-04-26T12:57:01.563Z,98918.09
2019-04-26T12:59:43.349Z,98930.52
2019-04-26T13:02:05.758Z,98927.17
2019-04-26T13:04:36.152Z,98916.91
2019-04-26T13:07:23.504Z,98918.65
2019-04-26T13:10:07.063Z,98915.09
2019-04-26T13:12:48.330Z,98913.40
2019-04-26T13:15:52.847Z,98917.33
2019-04-26T13:18:22.065Z,98925.11
2019-04-26T13:21:02.605Z,98927.03
2019-04-26T13:23:29.829Z,98929.73
2019-04-26T13:26:01.582Z,98942.19
2019-04-26T13:28:32.062Z,98942.81
2019-04-26T13:31:02.630Z,98948.91
2019-04-26T13:33:32.229Z,98953.43
2019-04-26T13:36:04.677Z,98960.06
2019-04-26T13:38:34.176Z,98962.06
2019-04-26T13:41:05.881Z,98964.44
2019-04-26T13:43:35.070Z,98966.98
2019-04-26T13:46:23.940Z,98970.42
2019-04-26T13:49:18.143Z,98968.95
2019-04-26T13:51:47.976Z,98966.67
2019-04-26T13:54:21.057Z,98976.50
2019-04-26T13:56:48.758Z,98975.27
2019-04-26T13:59:17.940Z,98976.08
2019-04-26T14:01:47.118Z,98977.69
2019-04-26T14:04:16.825Z,98976.75
2019-04-26T14:06:46.213Z,98975.62
2019-04-26T14:09:16.017Z,98975.75
2019-04-26T14:11:45.751Z,98972.47
2019-04-26T14:14:15.347Z,98970.81
2019-04-26T14:16:44.511Z,98971.46
2019-04-26T14:19:15.569Z,98974.77
2019-04-26T14:21:45.514Z,98966.98
2019-04-26T14:24:39.796Z,98965.02
2019-04-26T14:27:14.926Z,98969.11
2019-04-26T14:29:44.504Z,98963.30
2019-04-26T14:32:14.461Z,98954.73
2019-04-26T14:34:45.270Z,98951.19
2019-04-26T14:37:16.712Z,98943.10
2019-04-26T14:39:50.458Z,98922.83
2019-04-26T14:42:32.724Z,98924.30
2019-04-26T14:44:50.323Z,98930.36
2019-04-26T14:47:19.485Z,98922.59
2019-04-26T14:49:53.349Z,98924.56
2019-04-26T14:52:27.688Z,98916.12
2019-04-26T14:54:55.698Z,98919.34
2019-04-26T14:57:31.415Z,98902.28
2019-04-26T14:59:59.413Z,98911.92
2019-04-26T15:02:48.927Z,98914.33
2019-04-26T15:05:22.320Z,98931.42
2019-04-26T15:07:53.740Z,98932.23
2019-04-26T15:10:25.176Z,98935.70
2019-04-26T15:13:05.830Z,98927.00
2019-04-26T15:15:26.880Z,98936.36
2019-04-26T15:17:59.572Z,98944.66
2019-04-26T15:20:27.624Z,98946.38
2019-04-26T15:22:57.578Z,98941.07
2019-04-26T15:25:27.037Z,98936.91
2019-04-26T15:27:56.563Z,98950.78
2019-04-26T15:30:25.781Z,98952.64
2019-04-26T15:32:55.543Z,98951.67
2019-04-26T15:35:28.321Z,98955.04
2019-04-26T15:37:57.414Z,98961.91
2019-04-26T15:40:45.565Z,98974.77
2019-04-26T15:43:20.857Z,98978.03
2019-04-26T15:46:18.096Z,98982.19
2019-04-26T15:48:54.666Z,98993.90
2019-04-26T15:51:27.551Z,98999.09
2019-04-26T15:53:57.048Z,99005.11
2019-04-26T15:56:28.138Z,99012.05
2019-04-26T15:58:57.606Z,99008.87
2019-04-26T16:01:26.940Z,99013.55
2019-04-26T16:03:56.118Z,99022.38
2019-04-26T16:06:25.588Z,99028.05
2019-04-26T16:08:54.744Z,99030.31
2019-04-26T16:11:23.908Z,99029.35
2019-04-26T16:13:55.490Z,99017.16
2019-04-26T16:16:27.937Z,99017.40
2019-04-26T16:18:57.226Z,99009.16
2019-04-26T16:21:26.027Z,99001.61
2019-04-26T16:23:55.566Z,99001.97
2019-04-26T16:26:26.543Z,98999.20
2019-04-26T16:29:18.277Z,98985.28
2019-04-26T16:32:06.915Z,98978.83
2019-04-26T16:34:41.692Z,98973.52
2019-04-26T16:37:09.838Z,98977.70
2019-04-26T16:39:40.206Z,98985.31
2019-04-26T16:42:09.453Z,98986.08
2019-04-26T16:44:44.817Z,98978.14
2019-04-26T16:47:13.108Z,98970.88
2019-04-26T16:49:46.617Z,98966.51
2019-04-26T16:52:16.238Z,98945.00
2019-04-26T16:54:46.595Z,98928.53
2019-04-26T16:57:24.469Z,98925.27
2019-04-26T16:59:57.573Z,98931.78
2019-04-26T17:02:27.903Z,98935.20
2019-04-26T17:04:56.138Z,98943.32
2019-04-26T17:07:27.376Z,98944.14
2019-04-26T17:09:59.391Z,98955.25
2019-04-26T17:12:27.397Z,98955.77
2019-04-26T17:14:58.101Z,98974.09
2019-04-26T17:17:27.707Z,98993.73
2019-04-26T17:19:58.060Z,99012.48
2019-04-26T17:22:56.043Z,99036.55
2019-04-26T17:25:26.851Z,99049.95
2019-04-26T17:27:55.192Z,99051.64
2019-04-26T17:30:25.832Z,99058.11
2019-04-26T17:32:58.995Z,99064.86
2019-04-26T17:35:30.035Z,99071.22
2019-04-26T17:38:02.068Z,99066.02
2019-04-26T17:40:36.191Z,99067.15
2019-04-26T17:43:01.292Z,99072.47
2019-04-26T17:45:30.652Z,99069.81
2019-04-26T17:48:01.424Z,99070.59
2019-04-26T17:50:31.008Z,99071.61
2019-04-26T17:53:00.659Z,99075.95
2019-04-26T17:55:33.333Z,99074.91
2019-04-26T17:58:11.890Z,99068.16
2019-04-26T18:00:45.886Z,99075.02
2019-04-26T18:03:11.651Z,99076.07
2019-04-26T18:05:50.032Z,99073.22
2019-04-26T18:08:33.585Z,99076.38
2019-04-26T18:10:43.182Z,99069.01
2019-04-26T18:13:16.296Z,99075.16
2019-04-26T18:15:46.999Z,99077.14
2019-04-26T18:18:36.546Z,99078.45
2019-04-26T18:21:24.934Z,99081.59
2019-04-26T18:23:57.187Z,99083.47
2019-04-26T18:26:25.537Z,99093.49
2019-04-26T18:28:55.435Z,99090.99
2019-04-26T18:31:28.820Z,99104.15
2019-04-26T18:34:00.661Z,99112.21
2019-04-26T18:36:31.937Z,99115.38
2019-04-26T18:39:03.862Z,99117.37
2019-04-26T18:41:33.932Z,99128.64
2019-04-26T18:44:03.288Z,99128.52
2019-04-26T18:46:47.979Z,99133.02
2019-04-26T18:49:22.483Z,99128.41
2019-04-26T18:51:51.790Z,99140.47
2019-04-26T18:54:39.043Z,99140.25
2019-04-26T18:57:09.554Z,99145.64
2019-04-26T18:59:39.597Z,99153.03
2019-04-26T19:02:11.468Z,99159.30
2019-04-26T19:04:47.934Z,99160.67
2019-04-26T19:07:30.995Z,99163.37
2019-04-26T19:10:00.732Z,99169.05
2019-04-26T19:12:25.383Z,99166.45
2019-04-26T19:15:12.397Z,99177.05
2019-04-26T19:18:11.549Z,99183.09
2019-04-26T19:20:55.180Z,99191.89
2019-04-26T19:23:29.102Z,99200.58
2019-04-26T19:25:56.741Z,99198.93
2019-04-26T19:28:25.913Z,99203.44
2019-04-26T19:30:55.110Z,99207.95
2019-04-26T19:33:24.283Z,99201.33
2019-04-26T19:35:53.555Z,99208.63
2019-04-26T19:38:22.732Z,99198.52
2019-04-26T19:40:56.105Z,99207.59
2019-04-26T19:43:31.890Z,99213.98
2019-04-26T19:46:12.766Z,99212.45
2019-04-26T19:49:00.078Z,99220.50
2019-04-26T19:52:00.545Z,99226.92
2019-04-26T19:54:54.915Z,99232.42
2019-04-26T19:57:39.227Z,99239.99
2019-04-26T20:00:08.121Z,99246.61
2019-04-26T20:02:39.290Z,99245.56
2019-04-26T20:05:11.934Z,99246.31
2019-04-26T20:07:43.475Z,99242.64
2019-04-26T20:10:12.963Z,99246.52
2019-04-26T20:12:42.477Z,99239.41
2019-04-26T20:15:25.373Z,99240.84
2019-04-26T20:17:44.122Z,99235.17
2019-04-26T20:20:20.734Z,99239.72
2019-04-26T20:22:44.278Z,99233.94
2019-04-26T20:25:13.809Z,99224.20
2019-04-26T20:27:43.007Z,99223.52
2019-04-26T20:30:18.198Z,99221.34
2019-04-26T20:32:47.420Z,99222.30
2019-04-26T20:35:19.846Z,99216.05
2019-04-26T20:37:49.377Z,99221.08
2019-04-26T20:40:23.253Z,99218.49
2019-04-26T20:42:51.231Z,99225.38
2019-04-26T20:45:21.802Z,99224.73
2019-04-26T20:47:55.578Z,99226.59
2019-04-26T20:50:23.267Z,99229.55
2019-04-26T20:52:53.934Z,99229.41
2019-04-26T20:55:30.248Z,99228.61
2019-04-26T20:57:54.940Z,99224.16
2019-04-26T21:00:27.872Z,99221.30
2019-04-26T21:03:01.342Z,99223.56
2019-04-26T21:05:45.390Z,99221.41
2019-04-26T21:08:04.312Z,99212.97
2019-04-26T21:10:36.026Z,99215.52
2019-04-26T21:13:05.747Z,99212.23
2019-04-26T21:15:51.970Z,99210.21
2019-04-26T21:18:12.352Z,99205.93
2019-04-26T21:20:42.632Z,99213.57
2019-04-26T21:23:15.255Z,99209.02
2019-04-26T21:26:14.763Z,99213.73
2019-04-26T21:28:55.703Z,99214.98
2019-04-26T21:32:02.324Z,99218.66
2019-04-26T21:34:37.287Z,99217.69
2019-04-26T21:37:35.787Z,99219.77
2019-04-26T21:40:16.900Z,99227.64
2019-04-26T21:42:47.401Z,99230.20
2019-04-26T21:45:21.730Z,99230.48
2019-04-26T21:47:49.010Z,99237.41
2019-04-26T21:50:18.782Z,99236.83
2019-04-26T21:52:47.958Z,99229.45
2019-04-26T21:55:17.147Z,99233.38
2019-04-26T21:57:46.370Z,99221.56
2019-04-26T22:00:28.894Z,99220.34
2019-04-26T22:02:58.076Z,99218.28
2019-04-26T22:05:27.263Z,99224.84
2019-04-26T22:07:58.839Z,99221.45
2019-04-26T22:10:46.259Z,99226.58
2019-04-26T22:13:23.795Z,99233.00
2019-04-26T22:16:29.315Z,99238.09
2019-04-26T22:18:57.782Z,99240.54
2019-04-26T22:21:38.826Z,99238.09
2019-04-26T22:24:36.726Z,99234.14
2019-04-26T22:27:07.050Z,99231.47
2019-04-26T22:29:38.266Z,99230.25
2019-04-26T22:32:11.582Z,99228.34
2019-04-26T22:34:42.790Z,99232.34
2019-04-26T22:37:12.967Z,99230.82
2019-04-26T22:39:44.327Z,99230.37
2019-04-26T22:42:14.583Z,99225.89
2019-04-26T22:44:50.166Z,99223.94
2019-04-26T22:47:45.665Z,99219.20
2019-04-26T22:50:20.825Z,99212.27
2019-04-26T22:52:51.563Z,99226.53
2019-04-26T22:55:24.151Z,99226.91
2019-04-26T22:57:50.747Z,99228.69
2019-04-26T23:00:25.573Z,99234.84
2019-04-26T23:02:58.084Z,99244.76
2019-04-26T23:05:30.683Z,99245.98
2019-04-26T23:07:59.344Z,99239.35
2019-04-26T23:10:37.140Z,99231.41
2019-04-26T23:13:13.235Z,99225.57
2019-04-26T23:16:08.310Z,99221.61
2019-04-26T23:18:53.798Z,99214.69
2019-04-26T23:21:35.785Z,99214.33
2019-04-26T23:24:05.489Z,99218.14
2019-04-26T23:26:37.495Z,99222.72
2019-04-26T23:29:15.710Z,99233.48
2019-04-26T23:31:41.587Z,99236.05
2019-04-26T23:34:11.638Z,99242.95
2019-04-26T23:36:49.065Z,99245.77
2019-04-26T23:39:15.878Z,99239.94
2019-04-26T23:41:45.587Z,99252.98
2019-04-26T23:44:15.721Z,99248.71
2019-04-26T23:46:45.184Z,99244.84
2019-04-26T23:49:19.276Z,99250.91
2019-04-26T23:51:46.449Z,99250.42
2019-04-26T23:54:16.533Z,99252.88
2019-04-26T23:56:47.741Z,99252.80
2019-04-26T23:59:20.724Z,99251.55
